sensor_id;sensor_type;location;lat;lon;timestamp;pressure;altitude;pressure_sealevel;temperature;humidity
75699;BME280;64313;51.018;13.742;2022-10-17T00:00:34;100394.66;;;15.07;80.84
75699;BME280;64313;51.018;13.742;2022-10-17T00:03:00;100399.19;;;15.06;81.01
75699;BME280;64313;51.018;13.742;2022-10-17T00:05:25;100396.50;;;15.06;80.73
75699;BME280;64313;51.018;13.742;2022-10-17T00:07:51;100399.44;;;15.05;81.19
75699;BME280;64313;51.018;13.742;2022-10-17T00:10:18;100397.75;;;15.04;80.71
75699;BME280;64313;51.018;13.742;2022-10-17T00:12:43;100399.63;;;15.03;81.59
75699;BME280;64313;51.018;13.742;2022-10-17T00:15:13;100410.59;;;15.02;81.21
75699;BME280;64313;51.018;13.742;2022-10-17T00:17:39;100408.13;;;15.00;81.06
75699;BME280;64313;51.018;13.742;2022-10-17T00:20:06;100400.25;;;14.99;81.28
75699;BME280;64313;51.018;13.742;2022-10-17T00:22:31;100404.81;;;14.98;81.66
75699;BME280;64313;51.018;13.742;2022-10-17T00:24:57;100402.31;;;14.97;81.51
75699;BME280;64313;51.018;13.742;2022-10-17T00:27:22;100407.72;;;14.97;81.68
75699;BME280;64313;51.018;13.742;2022-10-17T00:29:48;100407.72;;;14.97;81.77
75699;BME280;64313;51.018;13.742;2022-10-17T00:32:14;100398.59;;;14.98;81.60
75699;BME280;64313;51.018;13.742;2022-10-17T00:34:40;100398.59;;;14.98;81.63
75699;BME280;64313;51.018;13.742;2022-10-17T00:37:05;100405.88;;;14.97;82.20
75699;BME280;64313;51.018;13.742;2022-10-17T00:39:30;100395.28;;;14.96;81.87
75699;BME280;64313;51.018;13.742;2022-10-17T00:41:55;100397.16;;;14.95;82.09
75699;BME280;64313;51.018;13.742;2022-10-17T00:47:03;100400.28;;;14.92;82.15
75699;BME280;64313;51.018;13.742;2022-10-17T00:49:32;100403.19;;;14.90;81.88
75699;BME280;64313;51.018;13.742;2022-10-17T00:52:01;100406.06;;;14.89;82.68
75699;BME280;64313;51.018;13.742;2022-10-17T00:54:33;100400.50;;;14.90;81.69
75699;BME280;64313;51.018;13.742;2022-10-17T00:57:00;100407.94;;;14.88;82.44
75699;BME280;64313;51.018;13.742;2022-10-17T00:59:26;100401.94;;;14.86;82.18
75699;BME280;64313;51.018;13.742;2022-10-17T01:02:08;100409.00;;;14.87;82.44
75699;BME280;64313;51.018;13.742;2022-10-17T01:04:38;100411.88;;;14.86;82.07
75699;BME280;64313;51.018;13.742;2022-10-17T01:07:04;100408.38;;;14.85;82.14
75699;BME280;64313;51.018;13.742;2022-10-17T01:09:29;100420.19;;;14.84;81.83
75699;BME280;64313;51.018;13.742;2022-10-17T01:13:32;100414.38;;;14.81;81.97
75699;BME280;64313;51.018;13.742;2022-10-17T01:15:34;100419.13;;;14.79;82.27
75699;BME280;64313;51.018;13.742;2022-10-17T01:18:10;100416.88;;;14.76;82.26
75699;BME280;64313;51.018;13.742;2022-10-17T01:29:10;100412.34;;;14.69;82.18
75699;BME280;64313;51.018;13.742;2022-10-17T01:32:07;100414.41;;;14.67;82.77
75699;BME280;64313;51.018;13.742;2022-10-17T01:34:44;100413.59;;;14.67;82.43
75699;BME280;64313;51.018;13.742;2022-10-17T01:39:46;100408.19;;;14.67;82.21
75699;BME280;64313;51.018;13.742;2022-10-17T01:42:16;100406.94;;;14.63;82.88
75699;BME280;64313;51.018;13.742;2022-10-17T01:44:51;100405.09;;;14.63;82.54
75699;BME280;64313;51.018;13.742;2022-10-17T01:47:23;100415.22;;;14.61;83.01
75699;BME280;64313;51.018;13.742;2022-10-17T01:49:51;100414.41;;;14.61;82.90
75699;BME280;64313;51.018;13.742;2022-10-17T01:52:43;100408.41;;;14.59;83.25
75699;BME280;64313;51.018;13.742;2022-10-17T01:55:10;100410.25;;;14.58;83.16
75699;BME280;64313;51.018;13.742;2022-10-17T01:57:46;100413.19;;;14.57;83.56
75699;BME280;64313;51.018;13.742;2022-10-17T02:00:17;100416.88;;;14.56;83.02
75699;BME280;64313;51.018;13.742;2022-10-17T02:02:45;100415.25;;;14.55;83.09
75699;BME280;64313;51.018;13.742;2022-10-17T02:05:12;100403.66;;;14.54;83.09
75699;BME280;64313;51.018;13.742;2022-10-17T02:07:40;100402.00;;;14.53;83.39
75699;BME280;64313;51.018;13.742;2022-10-17T02:10:14;100391.44;;;14.52;82.79
75699;BME280;64313;51.018;13.742;2022-10-17T02:12:54;100386.88;;;14.52;83.07
75699;BME280;64313;51.018;13.742;2022-10-17T02:18:37;100386.03;;;14.52;83.52
75699;BME280;64313;51.018;13.742;2022-10-17T02:21:09;100386.66;;;14.47;83.42
75699;BME280;64313;51.018;13.742;2022-10-17T02:27:16;100389.13;;;14.48;83.54
75699;BME280;64313;51.018;13.742;2022-10-17T02:29:50;100385.84;;;14.46;83.84
75699;BME280;64313;51.018;13.742;2022-10-17T02:32:24;100389.53;;;14.45;83.33
75699;BME280;64313;51.018;13.742;2022-10-17T02:34:54;100381.91;;;14.42;83.28
75699;BME280;64313;51.018;13.742;2022-10-17T02:37:24;100391.63;;;14.43;83.25
75699;BME280;64313;51.018;13.742;2022-10-17T02:39:54;100382.94;;;14.41;83.54
75699;BME280;64313;51.018;13.742;2022-10-17T02:42:22;100388.72;;;14.38;84.02
75699;BME280;64313;51.018;13.742;2022-10-17T02:44:49;100390.59;;;14.38;83.58
75699;BME280;64313;51.018;13.742;2022-10-17T02:47:22;100396.78;;;14.38;83.16
75699;BME280;64313;51.018;13.742;2022-10-17T02:49:50;100400.31;;;14.39;83.82
75699;BME280;64313;51.018;13.742;2022-10-17T02:52:23;100394.53;;;14.35;83.97
75699;BME280;64313;51.018;13.742;2022-10-17T02:54:58;100399.91;;;14.35;83.48
75699;BME280;64313;51.018;13.742;2022-10-17T02:58:03;100401.97;;;14.33;83.88
75699;BME280;64313;51.018;13.742;2022-10-17T03:00:21;100403.84;;;14.33;83.79
75699;BME280;64313;51.018;13.742;2022-10-17T03:02:49;100405.69;;;14.32;83.70
75699;BME280;64313;51.018;13.742;2022-10-17T03:05:21;100402.38;;;14.30;83.57
75699;BME280;64313;51.018;13.742;2022-10-17T03:07:46;100405.06;;;14.30;83.71
75699;BME280;64313;51.018;13.742;2022-10-17T03:10:12;100402.38;;;14.30;83.42
75699;BME280;64313;51.018;13.742;2022-10-17T03:12:37;100399.69;;;14.30;83.24
75699;BME280;64313;51.018;13.742;2022-10-17T03:15:03;100397.19;;;14.28;83.33
75699;BME280;64313;51.018;13.742;2022-10-17T03:17:28;100398.44;;;14.26;83.20
75699;BME280;64313;51.018;13.742;2022-10-17T03:19:54;100398.66;;;14.24;83.64
75699;BME280;64313;51.018;13.742;2022-10-17T03:22:19;100395.16;;;14.24;83.70
75699;BME280;64313;51.018;13.742;2022-10-17T03:24:44;100398.03;;;14.22;83.21
75699;BME280;64313;51.018;13.742;2022-10-17T03:27:10;100394.53;;;14.22;83.50
75699;BME280;64313;51.018;13.742;2022-10-17T03:29:35;100401.97;;;14.20;83.37
75699;BME280;64313;51.018;13.742;2022-10-17T03:32:01;100410.03;;;14.20;84.01
75699;BME280;64313;51.018;13.742;2022-10-17T03:34:26;100408.59;;;14.17;83.61
75699;BME280;64313;51.018;13.742;2022-10-17T03:36:51;100415.81;;;14.17;83.94
75699;BME280;64313;51.018;13.742;2022-10-17T03:39:17;100414.16;;;14.16;83.71
75699;BME280;64313;51.018;13.742;2022-10-17T03:41:42;100407.75;;;14.17;83.34
75699;BME280;64313;51.018;13.742;2022-10-17T03:44:07;100418.53;;;14.17;83.93
75699;BME280;64313;51.018;13.742;2022-10-17T03:46:32;100407.13;;;14.15;84.08
75699;BME280;64313;51.018;13.742;2022-10-17T03:48:58;100421.63;;;14.14;84.41
75699;BME280;64313;51.018;13.742;2022-10-17T03:51:23;100415.41;;;14.13;84.12
75699;BME280;64313;51.018;13.742;2022-10-17T03:53:49;100419.94;;;14.13;83.72
75699;BME280;64313;51.018;13.742;2022-10-17T03:56:20;100421.63;;;14.14;83.98
75699;BME280;64313;51.018;13.742;2022-10-17T03:58:46;100424.31;;;14.14;84.50
75699;BME280;64313;51.018;13.742;2022-10-17T04:01:13;100419.94;;;14.13;84.20
75699;BME280;64313;51.018;13.742;2022-10-17T04:03:39;100427.81;;;14.14;84.72
75699;BME280;64313;51.018;13.742;2022-10-17T04:06:05;100425.31;;;14.13;84.40
75699;BME280;64313;51.018;13.742;2022-10-17T04:08:30;100421.00;;;14.12;84.71
75699;BME280;64313;51.018;13.742;2022-10-17T04:10:59;100430.72;;;14.13;83.58
75699;BME280;64313;51.018;13.742;2022-10-17T04:13:27;100424.69;;;14.11;84.70
75699;BME280;64313;51.018;13.742;2022-10-17T04:16:00;100429.25;;;14.10;84.90
75699;BME280;64313;51.018;13.742;2022-10-17T04:18:25;100431.75;;;14.12;83.96
75699;BME280;64313;51.018;13.742;2022-10-17T04:20:51;100436.09;;;14.13;84.57
75699;BME280;64313;51.018;13.742;2022-10-17T04:23:16;100440.00;;;14.10;84.79
75699;BME280;64313;51.018;13.742;2022-10-17T04:25:42;100439.81;;;14.12;84.87
75699;BME280;64313;51.018;13.742;2022-10-17T04:28:07;100444.56;;;14.10;84.72
75699;BME280;64313;51.018;13.742;2022-10-17T04:30:32;100449.94;;;14.10;84.92
75699;BME280;64313;51.018;13.742;2022-10-17T04:32:58;100451.81;;;14.09;84.10
75699;BME280;64313;51.018;13.742;2022-10-17T04:35:23;100448.28;;;14.09;84.59
75699;BME280;64313;51.018;13.742;2022-10-17T04:37:48;100454.69;;;14.07;84.58
75699;BME280;64313;51.018;13.742;2022-10-17T04:40:14;100453.66;;;14.09;84.40
75699;BME280;64313;51.018;13.742;2022-10-17T04:42:39;100446.63;;;14.07;84.39
75699;BME280;64313;51.018;13.742;2022-10-17T04:45:05;100447.66;;;14.06;84.37
75699;BME280;64313;51.018;13.742;2022-10-17T04:47:31;100457.56;;;14.06;84.51
75699;BME280;64313;51.018;13.742;2022-10-17T04:49:56;100456.97;;;14.04;84.83
75699;BME280;64313;51.018;13.742;2022-10-17T04:52:21;100461.50;;;14.03;84.88
75699;BME280;64313;51.018;13.742;2022-10-17T04:54:47;100465.84;;;14.04;84.32
75699;BME280;64313;51.018;13.742;2022-10-17T04:57:13;100460.03;;;14.01;84.65
75699;BME280;64313;51.018;13.742;2022-10-17T04:59:38;100462.94;;;13.99;84.64
75699;BME280;64313;51.018;13.742;2022-10-17T05:02:03;100459.44;;;13.99;84.72
75699;BME280;64313;51.018;13.742;2022-10-17T05:04:29;100463.78;;;14.00;84.53
75699;BME280;64313;51.018;13.742;2022-10-17T05:06:54;100463.34;;;13.96;84.67
75699;BME280;64313;51.018;13.742;2022-10-17T05:09:19;100464.19;;;13.97;84.93
75699;BME280;64313;51.018;13.742;2022-10-17T05:11:44;100467.06;;;13.95;84.28
75699;BME280;64313;51.018;13.742;2022-10-17T05:14:10;100461.91;;;13.94;84.70
75699;BME280;64313;51.018;13.742;2022-10-17T05:16:35;100461.91;;;13.94;84.63
75699;BME280;64313;51.018;13.742;2022-10-17T05:19:00;100462.09;;;13.92;84.78
75699;BME280;64313;51.018;13.742;2022-10-17T05:21:27;100474.72;;;13.92;85.37
75699;BME280;64313;51.018;13.742;2022-10-17T05:23:53;100475.13;;;13.89;84.81
75699;BME280;64313;51.018;13.742;2022-10-17T05:26:19;100478.63;;;13.89;84.47
75699;BME280;64313;51.018;13.742;2022-10-17T05:28:45;100480.50;;;13.89;84.46
75699;BME280;64313;51.018;13.742;2022-10-17T05:31:11;100483.19;;;13.89;85.01
75699;BME280;64313;51.018;13.742;2022-10-17T05:33:37;100479.66;;;13.88;84.53
75699;BME280;64313;51.018;13.742;2022-10-17T05:36:03;100485.88;;;13.89;84.54
75699;BME280;64313;51.018;13.742;2022-10-17T05:38:28;100487.09;;;13.86;84.69
75699;BME280;64313;51.018;13.742;2022-10-17T05:40:58;100487.09;;;13.86;84.69
75699;BME280;64313;51.018;13.742;2022-10-17T05:43:23;100500.53;;;13.86;84.93
75699;BME280;64313;51.018;13.742;2022-10-17T05:45:49;100503.22;;;13.86;85.09
75699;BME280;64313;51.018;13.742;2022-10-17T05:48:14;100509.63;;;13.85;85.02
75699;BME280;64313;51.018;13.742;2022-10-17T05:50:40;100499.91;;;13.84;84.90
75699;BME280;64313;51.018;13.742;2022-10-17T05:53:05;100506.94;;;13.85;84.95
75699;BME280;64313;51.018;13.742;2022-10-17T05:55:30;100511.06;;;13.88;84.71
75699;BME280;64313;51.018;13.742;2022-10-17T05:57:55;100512.75;;;13.89;84.78
75699;BME280;64313;51.018;13.742;2022-10-17T06:00:22;100510.06;;;13.89;85.09
75699;BME280;64313;51.018;13.742;2022-10-17T06:02:47;100509.03;;;13.90;84.46
75699;BME280;64313;51.018;13.742;2022-10-17T06:05:13;100513.34;;;13.91;85.26
75699;BME280;64313;51.018;13.742;2022-10-17T06:07:39;100507.97;;;13.91;85.03
75699;BME280;64313;51.018;13.742;2022-10-17T06:10:05;100510.47;;;13.92;85.01
75699;BME280;64313;51.018;13.742;2022-10-17T06:12:31;100499.31;;;13.95;84.82
75699;BME280;64313;51.018;13.742;2022-10-17T06:14:56;100499.13;;;13.97;84.44
75699;BME280;64313;51.018;13.742;2022-10-17T06:17:21;100509.88;;;13.97;85.16
75699;BME280;64313;51.018;13.742;2022-10-17T06:19:46;100516.72;;;13.99;85.24
75699;BME280;64313;51.018;13.742;2022-10-17T06:22:12;100509.28;;;14.01;85.10
75699;BME280;64313;51.018;13.742;2022-10-17T06:24:37;100528.69;;;14.03;85.15
75699;BME280;64313;51.018;13.742;2022-10-17T06:27:03;100525.81;;;14.05;85.10
75699;BME280;64313;51.018;13.742;2022-10-17T06:29:28;100528.31;;;14.06;84.97
75699;BME280;64313;51.018;13.742;2022-10-17T06:31:53;100540.53;;;14.09;84.93
75699;BME280;64313;51.018;13.742;2022-10-17T06:34:19;100542.16;;;14.10;84.75
75699;BME280;64313;51.018;13.742;2022-10-17T06:36:44;100544.66;;;14.12;84.67
75699;BME280;64313;51.018;13.742;2022-10-17T06:39:09;100546.94;;;14.15;84.99
75699;BME280;64313;51.018;13.742;2022-10-17T06:41:35;100545.91;;;14.16;85.25
75699;BME280;64313;51.018;13.742;2022-10-17T06:44:00;100542.63;;;14.20;84.96
75699;BME280;64313;51.018;13.742;2022-10-17T06:46:25;100554.00;;;14.22;85.45
75699;BME280;64313;51.018;13.742;2022-10-17T06:48:53;100543.47;;;14.27;85.31
75699;BME280;64313;51.018;13.742;2022-10-17T06:51:19;100548.66;;;14.29;85.41
75699;BME280;64313;51.018;13.742;2022-10-17T06:53:44;100556.31;;;14.32;85.20
75699;BME280;64313;51.018;13.742;2022-10-17T06:56:09;100551.16;;;14.37;85.56
75699;BME280;64313;51.018;13.742;2022-10-17T06:58:36;100553.41;;;14.40;85.47
75699;BME280;64313;51.018;13.742;2022-10-17T07:01:08;100562.97;;;14.49;85.24
75699;BME280;64313;51.018;13.742;2022-10-17T07:03:34;100564.22;;;14.54;84.96
75699;BME280;64313;51.018;13.742;2022-10-17T07:05:59;100564.06;;;14.62;84.73
75699;BME280;64313;51.018;13.742;2022-10-17T07:08:25;100569.66;;;14.67;85.54
75699;BME280;64313;51.018;13.742;2022-10-17T07:10:51;100570.06;;;14.70;85.15
75699;BME280;64313;51.018;13.742;2022-10-17T07:13:17;100567.38;;;14.77;84.34
75699;BME280;64313;51.018;13.742;2022-10-17T07:15:42;100569.47;;;14.82;84.59
75699;BME280;64313;51.018;13.742;2022-10-17T07:18:08;100577.53;;;14.88;84.56
75699;BME280;64313;51.018;13.742;2022-10-17T07:20:34;100574.41;;;14.91;84.35
75699;BME280;64313;51.018;13.742;2022-10-17T07:22:59;100574.63;;;14.97;84.13
75699;BME280;64313;51.018;13.742;2022-10-17T07:25:24;100572.13;;;15.02;84.22
75699;BME280;64313;51.018;13.742;2022-10-17T07:27:51;100578.34;;;15.09;84.08
75699;BME280;64313;51.018;13.742;2022-10-17T07:30:17;100585.81;;;15.13;83.47
75699;BME280;64313;51.018;13.742;2022-10-17T07:32:43;100577.94;;;15.19;84.20
75699;BME280;64313;51.018;13.742;2022-10-17T07:35:09;100575.69;;;15.22;83.63
75699;BME280;64313;51.018;13.742;2022-10-17T07:37:35;100572.75;;;15.30;83.93
75699;BME280;64313;51.018;13.742;2022-10-17T07:40:00;100578.34;;;15.35;83.52
75699;BME280;64313;51.018;13.742;2022-10-17T07:42:26;100580.19;;;15.42;83.21
75699;BME280;64313;51.018;13.742;2022-10-17T07:44:54;100573.34;;;15.46;83.17
75699;BME280;64313;51.018;13.742;2022-10-17T07:47:19;100577.91;;;15.52;83.30
75699;BME280;64313;51.018;13.742;2022-10-17T07:49:45;100582.47;;;15.58;82.94
75699;BME280;64313;51.018;13.742;2022-10-17T07:52:11;100582.66;;;15.63;83.09
75699;BME280;64313;51.018;13.742;2022-10-17T07:54:37;100585.34;;;15.70;82.59
75699;BME280;64313;51.018;13.742;2022-10-17T07:57:03;100582.00;;;15.74;82.40
75699;BME280;64313;51.018;13.742;2022-10-17T07:59:28;100586.59;;;15.81;82.60
75699;BME280;64313;51.018;13.742;2022-10-17T08:01:54;100590.28;;;15.86;82.07
75699;BME280;64313;51.018;13.742;2022-10-17T08:04:20;100586.72;;;15.92;81.85
75699;BME280;64313;51.018;13.742;2022-10-17T08:06:45;100581.53;;;15.97;82.16
75699;BME280;64313;51.018;13.742;2022-10-17T08:09:10;100582.31;;;16.05;81.96
75699;BME280;64313;51.018;13.742;2022-10-17T08:11:35;100583.38;;;16.10;81.82
75699;BME280;64313;51.018;13.742;2022-10-17T08:14:01;100582.50;;;16.16;81.62
75699;BME280;64313;51.018;13.742;2022-10-17T08:16:26;100591.38;;;16.23;81.36
75699;BME280;64313;51.018;13.742;2022-10-17T08:18:51;100581.59;;;16.29;80.97
75699;BME280;64313;51.018;13.742;2022-10-17T08:21:17;100578.88;;;16.36;80.47
75699;BME280;64313;51.018;13.742;2022-10-17T08:23:42;100579.88;;;16.41;80.92
75699;BME280;64313;51.018;13.742;2022-10-17T08:26:09;100584.19;;;16.49;80.64
75699;BME280;64313;51.018;13.742;2022-10-17T08:28:38;100587.06;;;16.54;80.47
75699;BME280;64313;51.018;13.742;2022-10-17T08:31:09;100588.06;;;16.60;80.13
75699;BME280;64313;51.018;13.742;2022-10-17T08:33:35;100582.84;;;16.65;80.03
75699;BME280;64313;51.018;13.742;2022-10-17T08:36:03;100583.88;;;16.71;79.68
75699;BME280;64313;51.018;13.742;2022-10-17T08:38:29;100576.97;;;16.75;79.45
75699;BME280;64313;51.018;13.742;2022-10-17T08:41:00;100578.22;;;16.79;79.21
75699;BME280;64313;51.018;13.742;2022-10-17T08:43:31;100579.22;;;16.84;79.07
75699;BME280;64313;51.018;13.742;2022-10-17T08:46:01;100575.25;;;16.87;78.58
75699;BME280;64313;51.018;13.742;2022-10-17T08:48:32;100581.88;;;16.91;78.77
75699;BME280;64313;51.018;13.742;2022-10-17T08:51:02;100581.44;;;16.94;79.21
75699;BME280;64313;51.018;13.742;2022-10-17T08:54:12;100582.63;;;16.98;78.76
75699;BME280;64313;51.018;13.742;2022-10-17T08:56:47;100581.34;;;17.01;78.67
75699;BME280;64313;51.018;13.742;2022-10-17T08:59:16;100581.75;;;17.04;78.77
75699;BME280;64313;51.018;13.742;2022-10-17T09:01:59;100586.50;;;17.09;78.30
75699;BME280;64313;51.018;13.742;2022-10-17T09:04:49;100585.84;;;17.14;77.79
75699;BME280;64313;51.018;13.742;2022-10-17T09:07:30;100581.44;;;17.19;77.97
75699;BME280;64313;51.018;13.742;2022-10-17T09:10:15;100579.09;;;17.23;77.83
75699;BME280;64313;51.018;13.742;2022-10-17T09:18:36;100588.53;;;17.39;77.29
75699;BME280;64313;51.018;13.742;2022-10-17T09:21:24;100582.44;;;17.43;76.47
75699;BME280;64313;51.018;13.742;2022-10-17T09:23:55;100587.16;;;17.48;76.57
75699;BME280;64313;51.018;13.742;2022-10-17T09:26:23;100593.81;;;17.52;76.28
75699;BME280;64313;51.018;13.742;2022-10-17T09:28:56;100587.72;;;17.57;76.19
75699;BME280;64313;51.018;13.742;2022-10-17T09:31:28;100590.59;;;17.62;75.90
75699;BME280;64313;51.018;13.742;2022-10-17T09:33:56;100585.53;;;17.65;75.90
75699;BME280;64313;51.018;13.742;2022-10-17T09:36:31;100581.72;;;17.73;75.84
75699;BME280;64313;51.018;13.742;2022-10-17T09:39:00;100588.94;;;17.79;75.47
75699;BME280;64313;51.018;13.742;2022-10-17T09:41:49;100587.25;;;17.85;75.10
75699;BME280;64313;51.018;13.742;2022-10-17T09:47:17;100591.28;;;17.94;74.84
75699;BME280;64313;51.018;13.742;2022-10-17T09:49:46;100596.25;;;17.97;74.43
75699;BME280;64313;51.018;13.742;2022-10-17T09:52:16;100581.19;;;18.01;74.67
75699;BME280;64313;51.018;13.742;2022-10-17T09:54:48;100578.44;;;18.08;74.64
75699;BME280;64313;51.018;13.742;2022-10-17T09:57:14;100575.03;;;18.12;74.13
75699;BME280;64313;51.018;13.742;2022-10-17T09:59:54;100570.59;;;18.18;74.06
75699;BME280;64313;51.018;13.742;2022-10-17T10:02:22;100577.22;;;18.22;73.79
75699;BME280;64313;51.018;13.742;2022-10-17T10:07:24;100571.81;;;18.34;73.75
75699;BME280;64313;51.018;13.742;2022-10-17T10:09:50;100579.41;;;18.44;72.98
75699;BME280;64313;51.018;13.742;2022-10-17T10:14:42;100582.16;;;18.55;72.76
75699;BME280;64313;51.018;13.742;2022-10-17T10:19:57;100589.25;;;18.68;72.44
75699;BME280;64313;51.018;13.742;2022-10-17T10:22:22;100573.13;;;18.73;72.15
75699;BME280;64313;51.018;13.742;2022-10-17T10:25:07;100574.38;;;18.77;71.63
75699;BME280;64313;51.018;13.742;2022-10-17T10:27:33;100577.78;;;18.85;71.50
75699;BME280;64313;51.018;13.742;2022-10-17T10:30:00;100575.78;;;18.92;71.15
75699;BME280;64313;51.018;13.742;2022-10-17T10:32:28;100577.81;;;18.96;71.16
75699;BME280;64313;51.018;13.742;2022-10-17T10:34:58;100580.63;;;19.01;70.98
75699;BME280;64313;51.018;13.742;2022-10-17T10:37:27;100584.53;;;19.06;70.86
75699;BME280;64313;51.018;13.742;2022-10-17T10:40:27;100583.38;;;19.13;70.48
75699;BME280;64313;51.018;13.742;2022-10-17T10:42:56;100579.97;;;19.18;70.09
75699;BME280;64313;51.018;13.742;2022-10-17T10:45:27;100562.97;;;19.22;69.38
75699;BME280;64313;51.018;13.742;2022-10-17T10:48:01;100557.66;;;19.28;69.16
75699;BME280;64313;51.018;13.742;2022-10-17T10:50:32;100560.53;;;19.33;67.92
75699;BME280;64313;51.018;13.742;2022-10-17T10:56:00;100553.19;;;19.45;67.08
75699;BME280;64313;51.018;13.742;2022-10-17T11:01:31;100557.78;;;19.56;66.92
75699;BME280;64313;51.018;13.742;2022-10-17T11:04:38;100567.91;;;19.61;67.20
75699;BME280;64313;51.018;13.742;2022-10-17T11:07:13;100561.09;;;19.70;67.02
75699;BME280;64313;51.018;13.742;2022-10-17T11:12:32;100561.66;;;19.84;67.06
75699;BME280;64313;51.018;13.742;2022-10-17T11:15:15;100564.47;;;19.89;66.63
75699;BME280;64313;51.018;13.742;2022-10-17T11:18:00;100561.03;;;19.94;66.26
75699;BME280;64313;51.018;13.742;2022-10-17T11:20:46;100564.69;;;19.99;66.05
75699;BME280;64313;51.018;13.742;2022-10-17T11:23:26;100556.63;;;20.04;65.87
75699;BME280;64313;51.018;13.742;2022-10-17T11:25:53;100555.56;;;20.05;65.83
75699;BME280;64313;51.018;13.742;2022-10-17T11:28:22;100546.47;;;20.12;65.83
75699;BME280;64313;51.018;13.742;2022-10-17T11:33:28;100549.28;;;20.17;65.46
75699;BME280;64313;51.018;13.742;2022-10-17T11:35:59;100541.81;;;20.24;64.93
75699;BME280;64313;51.018;13.742;2022-10-17T11:38:46;100536.47;;;20.29;64.88
75699;BME280;64313;51.018;13.742;2022-10-17T11:41:38;100532.47;;;20.31;65.07
75699;BME280;64313;51.018;13.742;2022-10-17T11:44:36;100533.13;;;20.39;65.28
75699;BME280;64313;51.018;13.742;2022-10-17T11:47:25;100526.13;;;20.43;64.76
75699;BME280;64313;51.018;13.742;2022-10-17T11:50:25;100520.56;;;20.49;64.62
75699;BME280;64313;51.018;13.742;2022-10-17T11:52:56;100516.88;;;20.56;64.85
75699;BME280;64313;51.018;13.742;2022-10-17T11:55:26;100513.19;;;20.62;64.68
75699;BME280;64313;51.018;13.742;2022-10-17T11:58:04;100516.22;;;20.65;64.37
75699;BME280;64313;51.018;13.742;2022-10-17T12:05:58;100507.50;;;20.80;64.50
75699;BME280;64313;51.018;13.742;2022-10-17T12:08:43;100492.59;;;20.83;64.35
75699;BME280;64313;51.018;13.742;2022-10-17T12:11:47;100488.31;;;20.87;64.52
75699;BME280;64313;51.018;13.742;2022-10-17T12:14:43;100484.38;;;20.94;64.46
75699;BME280;64313;51.018;13.742;2022-10-17T12:17:32;100485.50;;;20.99;64.40
75699;BME280;64313;51.018;13.742;2022-10-17T12:22:59;100486.47;;;21.09;63.89
75699;BME280;64313;51.018;13.742;2022-10-17T12:25:30;100473.78;;;21.15;63.74
75699;BME280;64313;51.018;13.742;2022-10-17T12:28:18;100464.28;;;21.17;63.51
75699;BME280;64313;51.018;13.742;2022-10-17T12:30:57;100471.13;;;21.20;62.70
75699;BME280;64313;51.018;13.742;2022-10-17T12:33:29;100470.38;;;21.25;63.12
75699;BME280;64313;51.018;13.742;2022-10-17T12:41:51;100458.31;;;21.37;62.80
75699;BME280;64313;51.018;13.742;2022-10-17T12:44:37;100448.34;;;21.43;61.94
75699;BME280;64313;51.018;13.742;2022-10-17T12:49:49;100453.59;;;21.50;62.16
75699;BME280;64313;51.018;13.742;2022-10-17T12:52:50;100445.97;;;21.52;62.53
75699;BME280;64313;51.018;13.742;2022-10-17T12:55:17;100446.03;;;21.57;61.71
75699;BME280;64313;51.018;13.742;2022-10-17T12:57:49;100444.22;;;21.63;62.33
75699;BME280;64313;51.018;13.742;2022-10-17T13:00:23;100443.72;;;21.66;62.32
75699;BME280;64313;51.018;13.742;2022-10-17T13:02:52;100440.22;;;21.70;61.40
75699;BME280;64313;51.018;13.742;2022-10-17T13:05:30;100441.84;;;21.71;61.41
75699;BME280;64313;51.018;13.742;2022-10-17T13:07:59;100438.63;;;21.74;59.86
75699;BME280;64313;51.018;13.742;2022-10-17T13:10:32;100434.56;;;21.77;60.42
75699;BME280;64313;51.018;13.742;2022-10-17T13:13:15;100437.88;;;21.79;59.91
75699;BME280;64313;51.018;13.742;2022-10-17T13:15:49;100440.34;;;21.80;59.64
75699;BME280;64313;51.018;13.742;2022-10-17T13:18:24;100436.81;;;21.80;59.64
75699;BME280;64313;51.018;13.742;2022-10-17T13:21:27;100439.53;;;21.80;58.99
75699;BME280;64313;51.018;13.742;2022-10-17T13:23:46;100436.81;;;21.80;59.37
75699;BME280;64313;51.018;13.742;2022-10-17T13:26:19;100434.63;;;21.82;59.34
75699;BME280;64313;51.018;13.742;2022-10-17T13:29:12;100447.41;;;21.81;59.62
75699;BME280;64313;51.018;13.742;2022-10-17T13:31:40;100443.06;;;21.80;59.29
75699;BME280;64313;51.018;13.742;2022-10-17T13:34:15;100442.50;;;21.78;59.15
75699;BME280;64313;51.018;13.742;2022-10-17T13:36:42;100430.22;;;21.76;58.46
75699;BME280;64313;51.018;13.742;2022-10-17T13:39:09;100438.63;;;21.74;59.30
75699;BME280;64313;51.018;13.742;2022-10-17T13:41:38;100432.06;;;21.70;59.40
75699;BME280;64313;51.018;13.742;2022-10-17T13:44:19;100438.84;;;21.68;59.30
75699;BME280;64313;51.018;13.742;2022-10-17T13:46:45;100437.44;;;21.65;59.19
75699;BME280;64313;51.018;13.742;2022-10-17T13:51:47;100436.81;;;21.58;59.66
75699;BME280;64313;51.018;13.742;2022-10-17T13:54:17;100435.44;;;21.55;59.09
75699;BME280;64313;51.018;13.742;2022-10-17T13:56:43;100446.81;;;21.52;59.25
75699;BME280;64313;51.018;13.742;2022-10-17T13:59:21;100445.44;;;21.50;59.08
75699;BME280;64313;51.018;13.742;2022-10-17T14:01:47;100448.63;;;21.47;59.20
75699;BME280;64313;51.018;13.742;2022-10-17T14:04:14;100452.16;;;21.42;59.27